Time;durP1;ratioP1;P1;durP2;ratioP2;P2;SDS_P1;SDS_P2;PMS_P1;PMS_P2;Temp;Humidity;BMP_temperature;BMP_pressure;BME280_temperature;BME280_humidity;BME280_pressure;Samples;Min_cycle;Max_cycle;Signal;HPM_P1;HPM_P2
2024/01/15 00:02:16;;;;;;;1999.90;999.90;;;-2.20;93.50;;;;;;4995271;28;20062;-74
2024/01/15 00:04:42;;;;;;;1999.90;999.90;;;-2.20;94.00;;;;;;4988213;28;20082;-74
2024/01/15 00:07:08;;;;;;;1999.90;999.90;;;-2.20;93.60;;;;;;4988436;28;21173;-73
2024/01/15 00:09:34;;;;;;;1999.90;999.90;;;-2.30;93.70;;;;;;4989041;28;20045;-74
2024/01/15 00:12:01;;;;;;;1999.90;999.90;;;-2.40;93.70;;;;;;4989027;28;20037;-72
2024/01/15 00:14:27;;;;;;;1999.90;999.90;;;-2.40;93.70;;;;;;4985198;28;20105;-72
2024/01/15 00:16:54;;;;;;;1999.90;999.90;;;-2.50;93.80;;;;;;4987153;28;20029;-72
2024/01/15 00:19:21;;;;;;;1999.90;999.90;;;-2.50;93.40;;;;;;4987898;28;20077;-73
2024/01/15 00:21:47;;;;;;;1999.90;999.90;;;-2.60;93.60;;;;;;4974435;28;20704;-72
2024/01/15 00:24:13;;;;;;;1999.90;999.90;;;-2.60;93.50;;;;;;4968770;28;20698;-72
2024/01/15 00:26:39;;;;;;;1999.90;999.90;;;-2.70;94.10;;;;;;4973959;28;20062;-73
2024/01/15 00:29:07;;;;;;;1999.90;999.90;;;-2.80;94.10;;;;;;4987960;28;20034;-72
2024/01/15 00:31:33;;;;;;;1999.90;999.90;;;-2.80;94.30;;;;;;4987332;28;20034;-74
2024/01/15 00:33:59;;;;;;;1999.90;999.90;;;-2.90;94.00;;;;;;4986254;28;20038;-73
2024/01/15 00:36:25;;;;;;;1999.90;999.90;;;-2.90;94.50;;;;;;4986135;28;20115;-73
2024/01/15 00:38:51;;;;;;;1999.90;999.90;;;-2.90;94.20;;;;;;4971779;28;20463;-73
2024/01/15 00:41:18;;;;;;;1999.90;999.90;;;-2.90;94.50;;;;;;4988916;28;20041;-72
2024/01/15 00:43:48;;;;;;;1999.90;999.90;;;-3.00;94.80;;;;;;4969816;28;20650;-72
2024/01/15 00:46:14;;;;;;;1999.90;999.90;;;-3.10;94.90;;;;;;4975816;28;20019;-72
2024/01/15 00:48:40;;;;;;;1999.90;999.90;;;-3.00;94.90;;;;;;4955167;28;20035;-73
2024/01/15 00:51:06;;;;;;;1999.90;999.90;;;-3.10;94.80;;;;;;4991459;28;20125;-72
2024/01/15 00:53:33;;;;;;;1999.90;999.90;;;-3.20;94.80;;;;;;4987589;28;20443;-72
2024/01/15 00:55:58;;;;;;;1999.90;999.90;;;-3.20;94.70;;;;;;4990773;28;20058;-73
2024/01/15 00:58:26;;;;;;;1999.90;999.90;;;-3.20;94.90;;;;;;4984920;28;20046;-74
2024/01/15 01:00:52;;;;;;;1999.90;999.90;;;-3.20;95.00;;;;;;4986675;28;20120;-73
2024/01/15 01:03:18;;;;;;;1999.90;999.90;;;-3.30;95.00;;;;;;4990191;28;20117;-73
2024/01/15 01:05:44;;;;;;;1999.90;999.90;;;-3.40;94.90;;;;;;4971617;28;20485;-73
2024/01/15 01:08:10;;;;;;;1999.90;999.90;;;-3.50;95.00;;;;;;4987694;28;20050;-72
2024/01/15 01:10:37;;;;;;;1999.90;999.90;;;-3.60;95.20;;;;;;4972668;28;20042;-72
2024/01/15 01:13:02;;;;;;;1999.90;999.90;;;-3.50;95.40;;;;;;4988192;28;20085;-75
2024/01/15 01:15:28;;;;;;;1999.90;999.90;;;-3.60;95.40;;;;;;4986002;28;20034;-72
2024/01/15 01:17:54;;;;;;;1999.90;999.90;;;-3.70;95.40;;;;;;4991536;28;20042;-73
2024/01/15 01:20:19;;;;;;;1999.90;999.90;;;-3.80;95.40;;;;;;4989511;28;20626;-72
2024/01/15 01:22:45;;;;;;;1999.90;999.90;;;-3.80;95.60;;;;;;4988002;28;20042;-72
2024/01/15 01:25:11;;;;;;;1999.90;999.90;;;-4.00;95.50;;;;;;4974803;28;20039;-73
2024/01/15 01:27:36;;;;;;;1999.90;999.90;;;-4.10;95.60;;;;;;4990335;28;20104;-72
2024/01/15 01:30:02;;;;;;;1999.90;999.90;;;-4.20;95.60;;;;;;4986364;28;20504;-72
2024/01/15 01:32:28;;;;;;;1999.90;999.90;;;-4.20;95.70;;;;;;4989031;28;20026;-72
2024/01/15 01:34:54;;;;;;;1999.90;999.90;;;-4.20;95.90;;;;;;4988635;28;20036;-71
2024/01/15 01:37:23;;;;;;;1999.90;999.90;;;-4.30;95.80;;;;;;4991144;28;20038;-72
2024/01/15 01:39:48;;;;;;;1999.90;999.90;;;-4.40;95.70;;;;;;4986477;28;20038;-72
2024/01/15 01:42:14;;;;;;;1999.90;999.90;;;-4.40;96.10;;;;;;4990655;28;20040;-73
2024/01/15 01:44:39;;;;;;;1999.90;999.90;;;-4.40;96.00;;;;;;4991917;28;20622;-73
2024/01/15 01:47:06;;;;;;;1999.90;999.90;;;-4.50;95.90;;;;;;4993505;28;20033;-74
2024/01/15 01:49:32;;;;;;;1999.90;999.90;;;-4.50;95.90;;;;;;4986102;28;20444;-74
2024/01/15 01:52:00;;;;;;;1999.90;999.90;;;-4.40;96.00;;;;;;4984866;28;20658;-73
2024/01/15 01:54:29;;;;;;;1999.90;999.90;;;-4.20;96.00;;;;;;4971321;28;20057;-73
2024/01/15 01:56:55;;;;;;;1999.90;999.90;;;-4.30;95.90;;;;;;4989363;28;20137;-74
2024/01/15 01:59:23;;;;;;;1999.90;999.90;;;-4.40;96.00;;;;;;4971931;28;20069;-73
2024/01/15 02:01:50;;;;;;;1999.90;999.90;;;-4.40;96.10;;;;;;4989768;28;20026;-73
2024/01/15 02:04:17;;;;;;;1999.90;999.90;;;-4.40;96.00;;;;;;4991945;28;20028;-74
2024/01/15 02:06:42;;;;;;;1999.90;999.90;;;-4.30;96.00;;;;;;4988453;28;20062;-74
2024/01/15 02:09:09;;;;;;;1999.90;999.90;;;-4.30;96.00;;;;;;4974635;28;20515;-73
2024/01/15 02:11:37;;;;;;;1999.90;999.90;;;-4.20;96.00;;;;;;4991053;28;20038;-73
2024/01/15 02:14:03;;;;;;;1999.90;999.90;;;-4.30;95.90;;;;;;4972159;28;20037;-73
2024/01/15 02:16:29;;;;;;;1999.90;999.90;;;-4.30;96.00;;;;;;4967782;28;20039;-73
2024/01/15 02:18:54;;;;;;;1999.90;999.90;;;-4.30;96.00;;;;;;4985072;28;21335;-73
2024/01/15 02:21:20;;;;;;;1999.90;999.90;;;-4.40;95.90;;;;;;4989754;28;20709;-74
2024/01/15 02:23:46;;;;;;;1999.90;999.90;;;-4.30;95.90;;;;;;4981341;28;20457;-73
2024/01/15 02:26:12;;;;;;;1999.90;999.90;;;-4.30;95.70;;;;;;4985136;28;20034;-73
2024/01/15 02:28:38;;;;;;;1999.90;999.90;;;-4.20;95.70;;;;;;4987703;28;20046;-74
2024/01/15 02:31:05;;;;;;;1999.90;999.90;;;-4.20;95.60;;;;;;4986567;28;20046;-74
2024/01/15 02:33:30;;;;;;;1999.90;999.90;;;-4.20;95.60;;;;;;4987687;28;20097;-72
2024/01/15 02:35:56;;;;;;;1999.90;999.90;;;-4.30;95.50;;;;;;4990384;28;20409;-74
2024/01/15 02:38:22;;;;;;;1999.90;999.90;;;-4.30;95.50;;;;;;4991464;28;20444;-73
2024/01/15 02:40:47;;;;;;;1999.90;999.90;;;-4.30;95.50;;;;;;4976920;28;20393;-72
2024/01/15 02:43:13;;;;;;;1999.90;999.90;;;-4.20;95.50;;;;;;4957584;28;20093;-74
2024/01/15 02:45:39;;;;;;;1999.90;999.90;;;-4.20;95.40;;;;;;4989821;28;20039;-73
2024/01/15 02:48:05;;;;;;;1999.90;999.90;;;-4.10;95.30;;;;;;4992345;28;20067;-74
2024/01/15 02:50:31;;;;;;;1999.90;999.90;;;-4.30;95.10;;;;;;4991743;28;20065;-73
2024/01/15 02:52:57;;;;;;;1999.90;999.90;;;-4.30;95.20;;;;;;4975935;28;20105;-73
2024/01/15 02:55:23;;;;;;;1999.90;999.90;;;-4.30;95.10;;;;;;4991297;28;20521;-74
2024/01/15 02:57:48;;;;;;;1999.90;999.90;;;-4.40;95.10;;;;;;4973290;28;20034;-72
2024/01/15 03:00:14;;;;;;;1999.90;999.90;;;-4.50;95.20;;;;;;4995000;28;20057;-74
2024/01/15 03:02:43;;;;;;;1999.90;999.90;;;-4.50;95.40;;;;;;4993649;28;20133;-73
2024/01/15 03:05:09;;;;;;;1999.90;999.90;;;-4.40;95.40;;;;;;4991763;28;20057;-73
2024/01/15 03:07:35;;;;;;;1999.90;999.90;;;-4.30;95.50;;;;;;4994879;28;20553;-76
2024/01/15 03:10:01;;;;;;;1999.90;999.90;;;-4.20;95.60;;;;;;4975670;28;20030;-73
2024/01/15 03:12:27;;;;;;;1999.90;999.90;;;-4.10;95.50;;;;;;4990909;28;20037;-74
2024/01/15 03:14:53;;;;;;;1999.90;999.90;;;-4.00;95.30;;;;;;4972809;28;20092;-74
2024/01/15 03:17:18;;;;;;;1999.90;999.90;;;-3.90;95.30;;;;;;4977406;28;20490;-73
2024/01/15 03:19:44;;;;;;;1999.90;999.90;;;-3.90;95.10;;;;;;4991526;28;20030;-73
2024/01/15 03:22:10;;;;;;;1999.90;999.90;;;-3.80;95.10;;;;;;4985911;28;20494;-74
2024/01/15 03:24:36;;;;;;;1999.90;999.90;;;-3.80;95.00;;;;;;4977140;28;20092;-74
2024/01/15 03:27:02;;;;;;;1999.90;999.90;;;-3.70;95.00;;;;;;4991432;28;20030;-73
2024/01/15 03:29:28;;;;;;;1999.90;999.90;;;-3.60;95.10;;;;;;4990291;28;20052;-74
2024/01/15 03:31:54;;;;;;;1999.90;999.90;;;-3.50;95.10;;;;;;4991671;28;20484;-73
2024/01/15 03:34:19;;;;;;;1999.90;999.90;;;-3.50;94.90;;;;;;4975482;28;20053;-74
2024/01/15 03:36:45;;;;;;;1999.90;999.90;;;-3.40;95.00;;;;;;4990616;28;20022;-73
2024/01/15 03:39:11;;;;;;;1999.90;999.90;;;-3.40;94.80;;;;;;4996460;28;20504;-74
2024/01/15 03:41:36;;;;;;;1999.90;999.90;;;-3.50;94.70;;;;;;4995307;28;20512;-73
2024/01/15 03:44:02;;;;;;;1999.90;999.90;;;-3.50;94.80;;;;;;4990651;28;20033;-74
2024/01/15 03:46:28;;;;;;;1999.90;999.90;;;-3.40;95.00;;;;;;4982241;28;20026;-73
2024/01/15 03:48:54;;;;;;;1999.90;999.90;;;-3.40;95.00;;;;;;4982844;28;20034;-74
2024/01/15 03:51:20;;;;;;;1999.90;999.90;;;-3.30;94.90;;;;;;4995811;28;20046;-73
2024/01/15 03:53:46;;;;;;;1999.90;999.90;;;-3.30;94.90;;;;;;5001234;28;20097;-74
2024/01/15 03:56:12;;;;;;;1999.90;999.90;;;-3.30;95.00;;;;;;4994067;28;20121;-74
2024/01/15 03:58:37;;;;;;;1999.90;999.90;;;-3.20;94.90;;;;;;4982410;28;20042;-74
2024/01/15 04:01:03;;;;;;;1999.90;999.90;;;-3.10;94.80;;;;;;4984707;28;20113;-73
2024/01/15 04:03:29;;;;;;;1999.90;999.90;;;-3.00;94.70;;;;;;4997080;28;20096;-74
2024/01/15 04:05:54;;;;;;;1999.90;999.90;;;-3.00;94.60;;;;;;4988123;28;20038;-75
2024/01/15 04:08:20;;;;;;;1999.90;999.90;;;-3.00;94.40;;;;;;4997031;28;20045;-73
2024/01/15 04:10:46;;;;;;;1999.90;999.90;;;-3.00;94.40;;;;;;4993768;28;20037;-74
2024/01/15 04:13:11;;;;;;;1999.90;999.90;;;-3.00;94.50;;;;;;4981197;28;20539;-74
2024/01/15 04:15:37;;;;;;;1999.90;999.90;;;-3.00;94.40;;;;;;4997120;28;20034;-74
2024/01/15 04:18:06;;;;;;;1999.90;999.90;;;-3.00;94.50;;;;;;4979349;28;20034;-73
2024/01/15 04:20:32;;;;;;;1999.90;999.90;;;-2.90;94.40;;;;;;4999558;28;20038;-72
2024/01/15 04:22:57;;;;;;;1999.90;999.90;;;-2.90;94.60;;;;;;4987407;28;20432;-74
2024/01/15 04:25:23;;;;;;;1999.90;999.90;;;-2.80;94.60;;;;;;4997075;28;20867;-72
2024/01/15 04:27:49;;;;;;;1999.90;999.90;;;-2.80;94.10;;;;;;4974428;28;20505;-73
2024/01/15 04:30:14;;;;;;;1999.90;999.90;;;-2.60;93.30;;;;;;4988855;28;20041;-73
2024/01/15 04:32:40;;;;;;;1999.90;999.90;;;-2.50;93.00;;;;;;4969783;28;20475;-74
2024/01/15 04:35:07;;;;;;;1999.90;999.90;;;-2.50;92.70;;;;;;4993348;28;20085;-73
2024/01/15 04:37:33;;;;;;;1999.90;999.90;;;-2.50;92.60;;;;;;4972546;28;20539;-73
2024/01/15 04:39:58;;;;;;;1999.90;999.90;;;-2.50;92.50;;;;;;4990278;28;20037;-72
2024/01/15 04:42:25;;;;;;;1999.90;999.90;;;-2.40;93.30;;;;;;4983853;28;20026;-73
2024/01/15 04:44:51;;;;;;;1999.90;999.90;;;-2.50;92.60;;;;;;4987993;28;20058;-73
2024/01/15 04:47:16;;;;;;;1999.90;999.90;;;-2.50;93.00;;;;;;4973558;28;20511;-72
2024/01/15 04:49:45;;;;;;;1999.90;999.90;;;-2.50;92.90;;;;;;4986769;28;20543;-73
2024/01/15 04:52:10;;;;;;;1999.90;999.90;;;-2.40;93.10;;;;;;4990074;28;20035;-72
2024/01/15 04:54:37;;;;;;;1999.90;999.90;;;-2.40;92.70;;;;;;4993679;28;20054;-72
2024/01/15 04:57:03;;;;;;;1999.90;999.90;;;-2.30;92.50;;;;;;4990426;28;20129;-73
2024/01/15 04:59:29;;;;;;;1999.90;999.90;;;-2.30;92.50;;;;;;4977069;28;20121;-73
2024/01/15 05:01:55;;;;;;;1999.90;999.90;;;-2.20;92.90;;;;;;4989505;28;20049;-72
2024/01/15 05:04:21;;;;;;;1999.90;999.90;;;-2.20;92.70;;;;;;4984393;28;20047;-72
2024/01/15 05:06:46;;;;;;;1999.90;999.90;;;-2.20;93.20;;;;;;4986808;28;20068;-73
2024/01/15 05:09:13;;;;;;;1999.90;999.90;;;-2.20;92.90;;;;;;4985977;28;20085;-73
2024/01/15 05:11:39;;;;;;;1999.90;999.90;;;-2.30;92.90;;;;;;4981748;28;20446;-72
2024/01/15 05:14:05;;;;;;;1999.90;999.90;;;-2.40;93.30;;;;;;4990974;28;20787;-72
2024/01/15 05:16:30;;;;;;;1999.90;999.90;;;-2.40;93.50;;;;;;4981881;28;20052;-73
2024/01/15 05:18:56;;;;;;;1999.90;999.90;;;-2.50;93.50;;;;;;4977726;28;20030;-73
2024/01/15 05:21:22;;;;;;;1999.90;999.90;;;-2.40;93.30;;;;;;4985540;28;20030;-73
2024/01/15 05:23:47;;;;;;;1999.90;999.90;;;-2.40;93.40;;;;;;4986229;28;20113;-71
2024/01/15 05:26:13;;;;;;;1999.90;999.90;;;-2.40;93.20;;;;;;4987684;28;20591;-73
2024/01/15 05:28:40;;;;;;;1999.90;999.90;;;-2.30;93.70;;;;;;4974151;28;20450;-73
2024/01/15 05:31:06;;;;;;;1999.90;999.90;;;-2.40;93.60;;;;;;4989365;28;20663;-73
2024/01/15 05:33:32;;;;;;;1999.90;999.90;;;-2.40;93.40;;;;;;4988257;28;20031;-73
2024/01/15 05:35:58;;;;;;;1999.90;999.90;;;-2.40;93.40;;;;;;4987328;28;20034;-73
2024/01/15 05:38:24;;;;;;;1999.90;999.90;;;-2.40;93.80;;;;;;4977735;28;20101;-76
2024/01/15 05:40:50;;;;;;;1999.90;999.90;;;-2.40;93.40;;;;;;4990062;28;20110;-74
2024/01/15 05:43:15;;;;;;;1999.90;999.90;;;-2.40;93.60;;;;;;4989903;28;20030;-74
2024/01/15 05:45:43;;;;;;;1999.90;999.90;;;-2.40;93.80;;;;;;4993488;28;20035;-73
2024/01/15 05:48:09;;;;;;;1999.90;999.90;;;-2.30;93.90;;;;;;4984267;28;20034;-72
2024/01/15 05:50:35;;;;;;;1999.90;999.90;;;-2.30;93.70;;;;;;4990899;28;20092;-73
2024/01/15 05:53:00;;;;;;;1999.90;999.90;;;-2.30;93.50;;;;;;4976755;28;20035;-74
2024/01/15 05:55:26;;;;;;;1999.90;999.90;;;-2.30;93.60;;;;;;4980433;28;20050;-73
2024/01/15 05:57:52;;;;;;;1999.90;999.90;;;-2.20;93.50;;;;;;4993420;28;20042;-72
2024/01/15 06:00:18;;;;;;;1999.90;999.90;;;-2.20;93.60;;;;;;4973737;28;20500;-72
2024/01/15 06:02:44;;;;;;;1999.90;999.90;;;-2.30;93.50;;;;;;4979078;28;20167;-74
2024/01/15 06:05:09;;;;;;;1999.90;999.90;;;-2.20;93.20;;;;;;4972728;28;20113;-73
2024/01/15 06:07:36;;;;;;;1999.90;999.90;;;-2.10;92.90;;;;;;4988399;28;20031;-73
2024/01/15 06:10:02;;;;;;;1999.90;999.90;;;-2.10;93.00;;;;;;4988925;28;20026;-74
2024/01/15 06:12:28;;;;;;;1999.90;999.90;;;-2.00;92.90;;;;;;4986425;28;20084;-73
2024/01/15 06:14:54;;;;;;;1999.90;999.90;;;-2.00;93.00;;;;;;4992853;28;20038;-74
2024/01/15 06:17:19;;;;;;;1999.90;999.90;;;-1.90;92.90;;;;;;4989289;28;20037;-75
2024/01/15 06:19:45;;;;;;;1999.90;999.90;;;-1.90;92.70;;;;;;4990869;28;20026;-73
2024/01/15 06:22:11;;;;;;;1999.90;999.90;;;-2.00;92.80;;;;;;4967513;28;20104;-74
2024/01/15 06:24:36;;;;;;;1999.90;999.90;;;-2.00;92.80;;;;;;4983583;28;20037;-73
2024/01/15 06:27:02;;;;;;;1999.90;999.90;;;-2.00;92.80;;;;;;4985475;28;20049;-75
2024/01/15 06:29:28;;;;;;;1999.90;999.90;;;-1.90;92.40;;;;;;4985496;28;20034;-76
2024/01/15 06:31:54;;;;;;;1999.90;999.90;;;-1.90;92.70;;;;;;4989251;28;20057;-76
2024/01/15 06:34:19;;;;;;;1999.90;999.90;;;-1.80;92.70;;;;;;4988165;28;20034;-78
2024/01/15 06:36:45;;;;;;;1999.90;999.90;;;-1.80;92.50;;;;;;4988698;28;20081;-77
2024/01/15 06:39:11;;;;;;;1999.90;999.90;;;-1.80;92.70;;;;;;4988376;28;20038;-79
2024/01/15 06:41:43;;;;;;;1999.90;999.90;;;-1.80;93.40;;;;;;4988295;28;20041;-77
2024/01/15 06:44:12;;;;;;;1999.90;999.90;;;-1.80;93.50;;;;;;4986334;28;20036;-77
2024/01/15 06:46:45;;;;;;;1999.90;999.90;;;-1.90;93.60;;;;;;4962826;28;20046;-78
2024/01/15 06:49:11;;;;;;;1999.90;999.90;;;-2.00;93.10;;;;;;4950211;28;20034;-78
2024/01/15 06:51:37;;;;;;;1999.90;999.90;;;-1.90;93.20;;;;;;4984246;28;20128;-77
2024/01/15 06:54:06;;;;;;;1999.90;999.90;;;-1.90;93.40;;;;;;4985187;28;20042;-77
2024/01/15 06:56:32;;;;;;;1999.90;999.90;;;-1.80;93.40;;;;;;4987868;28;20385;-77
2024/01/15 06:58:58;;;;;;;1999.90;999.90;;;-1.90;93.40;;;;;;4968810;28;20042;-77
2024/01/15 07:01:24;;;;;;;1999.90;999.90;;;-1.90;93.40;;;;;;4977598;28;20265;-77
2024/01/15 07:03:49;;;;;;;1999.90;999.90;;;-1.90;93.40;;;;;;4951343;28;20039;-79
2024/01/15 07:06:18;;;;;;;1999.90;999.90;;;-1.90;93.20;;;;;;4965643;28;20031;-78
2024/01/15 07:08:45;;;;;;;1999.90;999.90;;;-1.90;93.20;;;;;;4994009;28;20042;-80
2024/01/15 07:11:13;;;;;;;1999.90;999.90;;;-2.00;92.90;;;;;;4999918;28;20092;-80
2024/01/15 07:13:48;;;;;;;1999.90;999.90;;;-1.90;93.10;;;;;;4985009;28;20496;-80
2024/01/15 07:16:14;;;;;;;1999.90;999.90;;;-1.90;92.30;;;;;;5001166;28;20120;-79
2024/01/15 07:18:39;;;;;;;1999.90;999.90;;;-1.80;92.50;;;;;;4993161;28;20035;-79
2024/01/15 07:21:05;;;;;;;1999.90;999.90;;;-1.80;92.20;;;;;;4993911;28;20030;-79
2024/01/15 07:23:51;;;;;;;1999.90;999.90;;;-1.80;92.00;;;;;;4987508;28;20527;-79
2024/01/15 07:26:17;;;;;;;1999.90;999.90;;;-1.80;92.00;;;;;;4990917;28;20031;-79
2024/01/15 07:28:42;;;;;;;1999.90;999.90;;;-1.70;92.20;;;;;;4996509;28;20036;-79
2024/01/15 07:31:10;;;;;;;1999.90;999.90;;;-1.70;92.30;;;;;;4975733;28;20069;-79
2024/01/15 07:33:36;;;;;;;1999.90;999.90;;;-1.70;92.30;;;;;;4976342;28;20030;-79
2024/01/15 07:36:02;;;;;;;1999.90;999.90;;;-1.80;92.10;;;;;;4996325;28;20074;-72
2024/01/15 07:38:28;;;;;;;1999.90;999.90;;;-1.80;91.90;;;;;;4994383;28;20108;-75
2024/01/15 07:40:55;;;;;;;1999.90;999.90;;;-1.70;92.50;;;;;;4986043;28;20101;-76
2024/01/15 07:43:24;;;;;;;1999.90;999.90;;;-1.70;92.00;;;;;;4988698;28;20338;-76
2024/01/15 07:45:49;;;;;;;1999.90;999.90;;;-1.70;91.90;;;;;;4976997;28;20026;-77
2024/01/15 07:48:15;;;;;;;1999.90;999.90;;;-1.70;92.20;;;;;;4975433;28;20041;-76
2024/01/15 07:50:41;;;;;;;1999.90;999.90;;;-1.60;91.90;;;;;;4991038;28;20049;-75
2024/01/15 07:53:06;;;;;;;1999.90;999.90;;;-1.60;92.30;;;;;;4994548;28;20037;-75
2024/01/15 07:55:32;;;;;;;1999.90;999.90;;;-1.50;92.50;;;;;;4975878;28;20042;-76
2024/01/15 07:58:01;;;;;;;1999.90;999.90;;;-1.50;92.20;;;;;;4969288;28;20034;-75
2024/01/15 08:00:27;;;;;;;1999.90;999.90;;;-1.50;91.60;;;;;;4990804;28;20026;-77
2024/01/15 08:02:53;;;;;;;1999.90;999.90;;;-1.40;92.20;;;;;;4993340;28;20493;-76
2024/01/15 08:05:19;;;;;;;1999.90;999.90;;;-1.50;91.50;;;;;;4972144;28;20030;-77
2024/01/15 08:07:44;;;;;;;1999.90;999.90;;;-1.50;90.70;;;;;;4968604;28;20019;-76
2024/01/15 08:10:10;;;;;;;1999.90;999.90;;;-1.50;91.20;;;;;;4969833;28;20057;-77
2024/01/15 08:12:36;;;;;;;1999.90;999.90;;;-1.50;90.30;;;;;;4990656;28;20028;-77
2024/01/15 08:15:01;;;;;;;1999.90;999.90;;;-1.40;90.60;;;;;;4977540;28;20393;-75
2024/01/15 08:17:28;;;;;;;1999.90;999.90;;;-1.40;90.20;;;;;;4976100;28;20026;-77
2024/01/15 08:19:54;;;;;;;1999.90;999.90;;;-1.40;90.50;;;;;;4993599;28;20037;-77
2024/01/15 08:22:20;;;;;;;1999.90;999.90;;;-1.30;89.60;;;;;;4988356;28;20033;-77
2024/01/15 08:24:46;;;;;;;1999.90;999.90;;;-1.30;89.90;;;;;;4989639;28;20035;-76
2024/01/15 08:27:11;;;;;;;1999.90;999.90;;;-1.30;89.10;;;;;;4991308;28;20506;-76
2024/01/15 08:29:37;;;;;;;1999.90;999.90;;;-1.40;88.20;;;;;;4974621;28;20587;-77
2024/01/15 08:32:03;;;;;;;1999.90;999.90;;;-1.30;88.30;;;;;;4986980;28;20102;-76
2024/01/15 08:34:29;;;;;;;1999.90;999.90;;;-1.30;88.10;;;;;;4980586;28;20048;-76
2024/01/15 08:37:00;;;;;;;1999.90;999.90;;;-1.30;86.60;;;;;;4980540;28;20045;-80
2024/01/15 08:39:36;;;;;;;1999.90;999.90;;;-1.30;86.30;;;;;;4976847;28;20034;-78
2024/01/15 08:42:01;;;;;;;1999.90;999.90;;;-1.30;85.20;;;;;;4992473;28;20353;-79
2024/01/15 08:44:27;;;;;;;1999.90;999.90;;;-1.20;86.00;;;;;;4990731;28;20729;-76
2024/01/15 08:46:53;;;;;;;1999.90;999.90;;;-1.00;84.10;;;;;;4986564;28;20031;-76
2024/01/15 08:49:18;;;;;;;1999.90;999.90;;;-1.00;85.90;;;;;;4956175;28;20038;-75
2024/01/15 08:51:45;;;;;;;1999.90;999.90;;;-1.10;85.70;;;;;;4986563;28;20035;-76
2024/01/15 08:54:11;;;;;;;1999.90;999.90;;;-1.20;85.30;;;;;;4988053;28;20081;-75
2024/01/15 08:56:36;;;;;;;1999.90;999.90;;;-1.20;85.60;;;;;;4983186;28;20834;-76
2024/01/15 08:59:02;;;;;;;1999.90;999.90;;;-1.20;83.20;;;;;;4983420;28;20072;-77
2024/01/15 09:01:29;;;;;;;1999.90;999.90;;;-1.20;83.40;;;;;;4985261;28;20066;-77
2024/01/15 09:03:54;;;;;;;1999.90;999.90;;;-1.30;84.60;;;;;;4984658;28;20042;-76
2024/01/15 09:06:20;;;;;;;1999.90;999.90;;;-1.40;83.50;;;;;;4971120;28;20145;-76
2024/01/15 09:08:46;;;;;;;1999.90;999.90;;;-1.40;84.40;;;;;;4971072;28;20041;-77
2024/01/15 09:11:12;;;;;;;1999.90;999.90;;;-1.40;84.30;;;;;;4951987;28;20070;-76
2024/01/15 09:13:38;;;;;;;1999.90;999.90;;;-1.50;83.60;;;;;;4969474;28;20030;-77
2024/01/15 09:16:04;;;;;;;1999.90;999.90;;;-1.50;84.00;;;;;;4969143;28;20034;-77
2024/01/15 09:18:30;;;;;;;1999.90;999.90;;;-1.50;83.70;;;;;;4986357;28;20035;-77
2024/01/15 09:20:55;;;;;;;1999.90;999.90;;;-1.40;82.10;;;;;;4971144;28;20084;-77
2024/01/15 09:23:21;;;;;;;1999.90;999.90;;;-1.40;82.80;;;;;;4985338;28;20690;-77
2024/01/15 09:25:48;;;;;;;1999.90;999.90;;;-1.40;82.20;;;;;;4971968;28;20088;-76
2024/01/15 09:28:15;;;;;;;1999.90;999.90;;;-1.30;81.40;;;;;;4987477;28;20121;-78
2024/01/15 09:30:41;;;;;;;1999.90;999.90;;;-1.30;82.80;;;;;;4970574;28;20042;-79
2024/01/15 09:33:07;;;;;;;1999.90;999.90;;;-1.20;82.50;;;;;;4985586;28;20046;-78
2024/01/15 09:35:32;;;;;;;1999.90;999.90;;;-1.20;82.60;;;;;;4987231;28;20097;-78
2024/01/15 09:38:01;;;;;;;1999.90;999.90;;;-1.30;80.80;;;;;;4969661;28;20180;-79
2024/01/15 09:40:35;;;;;;;1999.90;999.90;;;-1.30;83.30;;;;;;4989220;28;20041;-80
2024/01/15 09:43:03;;;;;;;1999.90;999.90;;;-1.20;80.20;;;;;;4981372;28;20452;-78
2024/01/15 09:45:30;;;;;;;1999.90;999.90;;;-1.30;81.30;;;;;;4973704;28;20139;-78
2024/01/15 09:47:56;;;;;;;1999.90;999.90;;;-1.30;82.30;;;;;;4988614;28;20045;-78
2024/01/15 09:50:22;;;;;;;1999.90;999.90;;;-1.30;81.00;;;;;;4992223;28;20038;-75
2024/01/15 09:52:48;;;;;;;1999.90;999.90;;;-1.10;82.00;;;;;;4986537;28;20519;-77
2024/01/15 09:55:16;;;;;;;1999.90;999.90;;;-1.00;81.80;;;;;;4989660;28;20054;-77
2024/01/15 09:57:43;;;;;;;1999.90;999.90;;;-0.90;83.10;;;;;;4987100;28;20035;-77
2024/01/15 10:00:10;;;;;;;1999.90;999.90;;;-0.70;80.80;;;;;;4984501;28;20038;-77
2024/01/15 10:02:36;;;;;;;1999.90;999.90;;;-0.60;79.90;;;;;;4981989;28;20031;-77
2024/01/15 10:05:02;;;;;;;1999.90;999.90;;;-0.30;80.40;;;;;;4990523;28;20492;-81
2024/01/15 10:07:30;;;;;;;1999.90;999.90;;;-0.10;80.40;;;;;;4987635;28;20044;-79
2024/01/15 10:09:55;;;;;;;1999.90;999.90;;;0.20;78.90;;;;;;4976653;28;20084;-79
2024/01/15 10:12:23;;;;;;;1999.90;999.90;;;0.40;80.40;;;;;;4975260;28;20038;-79
2024/01/15 10:14:50;;;;;;;1999.90;999.90;;;0.40;82.10;;;;;;4987800;28;20034;-79
2024/01/15 10:17:17;;;;;;;1999.90;999.90;;;0.40;82.20;;;;;;4971367;28;20041;-79
2024/01/15 10:19:42;;;;;;;1999.90;999.90;;;0.50;83.20;;;;;;4984953;28;20394;-78
2024/01/15 10:22:09;;;;;;;1999.90;999.90;;;0.40;81.50;;;;;;4984540;28;20042;-78
2024/01/15 10:24:38;;;;;;;1999.90;999.90;;;0.50;83.40;;;;;;4984954;28;20038;-78
2024/01/15 10:27:09;;;;;;;1999.90;999.90;;;0.50;83.10;;;;;;4968682;28;20201;-78
2024/01/15 10:29:35;;;;;;;1999.90;999.90;;;0.50;83.30;;;;;;4987839;28;20037;-77
2024/01/15 10:32:01;;;;;;;1999.90;999.90;;;0.50;83.90;;;;;;4982601;28;20033;-77
2024/01/15 10:34:27;;;;;;;1999.90;999.90;;;0.60;83.80;;;;;;4986099;28;20125;-72
2024/01/15 10:36:55;;;;;;;1999.90;999.90;;;0.60;83.70;;;;;;4988216;28;20114;-73
2024/01/15 10:39:24;;;;;;;1999.90;999.90;;;0.60;82.30;;;;;;4983746;28;20046;-73
2024/01/15 10:41:51;;;;;;;1999.90;999.90;;;0.60;82.00;;;;;;4985923;28;20033;-72
2024/01/15 10:44:17;;;;;;;1999.90;999.90;;;0.60;82.60;;;;;;4971814;28;20057;-72
2024/01/15 10:46:45;;;;;;;1999.90;999.90;;;0.70;82.20;;;;;;4984965;28;20064;-73
2024/01/15 10:49:11;;;;;;;1999.90;999.90;;;0.90;82.30;;;;;;4983361;28;20042;-73
2024/01/15 10:51:38;;;;;;;1999.90;999.90;;;0.90;80.70;;;;;;4970560;28;20040;-73
2024/01/15 10:54:05;;;;;;;1999.90;999.90;;;1.30;81.90;;;;;;4983980;28;20030;-74
2024/01/15 10:56:35;;;;;;;1999.90;999.90;;;1.40;80.80;;;;;;4970783;28;20060;-74
2024/01/15 10:59:01;;;;;;;1999.90;999.90;;;1.50;79.80;;;;;;4984704;28;20037;-74
2024/01/15 11:01:28;;;;;;;1999.90;999.90;;;1.70;79.60;;;;;;4988359;28;20546;-73
2024/01/15 11:03:55;;;;;;;1999.90;999.90;;;1.60;80.20;;;;;;4984497;28;20031;-73
2024/01/15 11:06:24;;;;;;;1999.90;999.90;;;1.50;80.50;;;;;;4988095;28;20034;-75
2024/01/15 11:08:51;;;;;;;1999.90;999.90;;;1.50;80.20;;;;;;4989727;28;20058;-74
2024/01/15 11:11:17;;;;;;;1999.90;999.90;;;1.80;86.80;;;;;;4974143;28;20026;-74
2024/01/15 11:13:46;;;;;;;1999.90;999.90;;;2.00;89.30;;;;;;4988349;28;20038;-73
2024/01/15 11:16:14;;;;;;;1999.90;999.90;;;1.90;90.40;;;;;;4989606;28;20053;-74
2024/01/15 11:18:43;;;;;;;1999.90;999.90;;;1.80;90.50;;;;;;4991554;28;20595;-73
2024/01/15 11:21:15;;;;;;;1999.90;999.90;;;2.10;91.90;;;;;;4989241;28;20027;-74
2024/01/15 11:23:48;;;;;;;1999.90;999.90;;;1.90;89.60;;;;;;4989184;28;20022;-73
2024/01/15 11:26:45;;;;;;;1999.90;999.90;;;2.10;90.20;;;;;;4989056;28;20026;-73
2024/01/15 11:29:34;;;;;;;1999.90;999.90;;;1.80;90.50;;;;;;4990667;28;20034;-77
2024/01/15 11:32:04;;;;;;;1999.90;999.90;;;1.60;90.20;;;;;;4991157;28;20046;-77
2024/01/15 11:34:51;;;;;;;1999.90;999.90;;;1.30;90.70;;;;;;4990493;28;20044;-76
2024/01/15 11:37:18;;;;;;;1999.90;999.90;;;1.30;90.10;;;;;;4987042;28;20026;-77
2024/01/15 11:39:44;;;;;;;1999.90;999.90;;;0.70;89.70;;;;;;4971309;28;20046;-78
2024/01/15 11:42:11;;;;;;;1999.90;999.90;;;0.90;89.90;;;;;;4991056;28;20029;-78
2024/01/15 11:44:38;;;;;;;1999.90;999.90;;;0.80;90.10;;;;;;4988707;28;20117;-79
2024/01/15 11:47:12;;;;;;;1999.90;999.90;;;0.80;89.10;;;;;;4989637;28;20040;-79
2024/01/15 11:50:05;;;;;;;1999.90;999.90;;;0.80;90.30;;;;;;4986782;28;20027;-79
2024/01/15 11:52:38;;;;;;;1999.90;999.90;;;0.80;90.00;;;;;;4979830;28;20044;-79
2024/01/15 11:55:21;;;;;;;1999.90;999.90;;;0.90;88.50;;;;;;4968786;28;20097;-79
2024/01/15 11:57:51;;;;;;;1999.90;999.90;;;0.90;88.60;;;;;;4990041;28;20034;-76
2024/01/15 12:00:17;;;;;;;1999.90;999.90;;;1.00;89.00;;;;;;4988759;28;20046;-76